Search for airport 
image banner adimage banner ad
image banner ad

ORNI - Al Najaf Al-Ashraf International Airport

Located in Al Najaf City, Iraq

ICAO - ORNI, IATA - NJF

Data provided by Airmate  

General information

Coordinates: N31°59'23" E44°24'15"
Elevation is 107 feet MSL.
 
Rated:
View ratings: [VIEW]


View others Airports in Najaf Governorate

Operational data

Open for public use
Current time UTC:
Current local time:
Weather
METAR: ORNI 122200Z 21005KT CAVOK 32/14 Q0999 NOSIG
TAF: TAF ORNI 122200Z 1300/1324 27005KT CAVOK
View NOTAMs / SUP AIP / TFR affecting this airport [VIEW]
Communications frequencies: [VIEW]

Runways:

RWY identifierQFULength (ft)Width (ft)SurfaceLDA (ft)
1097°9843148Asphaltic Concrete
289842148

Airport contact information

Address: Al Najaf City Iraq

Satellite view of ORNI